sensor_id;sensor_type;location;lat;lon;timestamp;P1;durP1;ratioP1;P2;durP2;ratioP2
12958;SDS011;6544;51.666;6.634;2023-04-15T00:02:13;8.50;;;6.00;;
12958;SDS011;6544;51.666;6.634;2023-04-15T00:04:40;9.30;;;5.78;;
12958;SDS011;6544;51.666;6.634;2023-04-15T00:07:08;7.07;;;5.28;;
12958;SDS011;6544;51.666;6.634;2023-04-15T00:09:35;7.80;;;5.65;;
12958;SDS011;6544;51.666;6.634;2023-04-15T00:12:02;10.50;;;6.07;;
12958;SDS011;6544;51.666;6.634;2023-04-15T00:14:30;8.40;;;5.65;;
12958;SDS011;6544;51.666;6.634;2023-04-15T00:16:56;9.98;;;5.57;;
12958;SDS011;6544;51.666;6.634;2023-04-15T00:19:23;8.30;;;5.25;;
12958;SDS011;6544;51.666;6.634;2023-04-15T00:21:50;7.82;;;5.97;;
12958;SDS011;6544;51.666;6.634;2023-04-15T00:24:18;8.02;;;6.22;;
12958;SDS011;6544;51.666;6.634;2023-04-15T00:26:45;6.78;;;4.95;;
12958;SDS011;6544;51.666;6.634;2023-04-15T00:29:13;7.15;;;5.57;;
12958;SDS011;6544;51.666;6.634;2023-04-15T00:31:40;6.90;;;5.28;;
12958;SDS011;6544;51.666;6.634;2023-04-15T00:34:07;9.35;;;5.40;;
12958;SDS011;6544;51.666;6.634;2023-04-15T00:36:34;9.13;;;6.05;;
12958;SDS011;6544;51.666;6.634;2023-04-15T00:39:01;9.27;;;6.00;;
12958;SDS011;6544;51.666;6.634;2023-04-15T00:41:30;8.77;;;5.68;;
12958;SDS011;6544;51.666;6.634;2023-04-15T00:43:58;8.13;;;5.53;;
12958;SDS011;6544;51.666;6.634;2023-04-15T00:46:27;7.97;;;5.60;;
12958;SDS011;6544;51.666;6.634;2023-04-15T00:48:55;8.85;;;5.72;;
12958;SDS011;6544;51.666;6.634;2023-04-15T00:51:22;7.38;;;5.75;;
12958;SDS011;6544;51.666;6.634;2023-04-15T00:53:49;8.15;;;6.07;;
12958;SDS011;6544;51.666;6.634;2023-04-15T00:56:17;7.22;;;5.65;;
12958;SDS011;6544;51.666;6.634;2023-04-15T00:58:47;7.63;;;6.40;;
12958;SDS011;6544;51.666;6.634;2023-04-15T01:01:14;8.43;;;5.82;;
12958;SDS011;6544;51.666;6.634;2023-04-15T01:03:41;9.82;;;6.40;;
12958;SDS011;6544;51.666;6.634;2023-04-15T01:06:07;9.25;;;6.40;;
12958;SDS011;6544;51.666;6.634;2023-04-15T01:08:35;9.23;;;6.47;;
12958;SDS011;6544;51.666;6.634;2023-04-15T01:11:02;7.63;;;6.82;;
12958;SDS011;6544;51.666;6.634;2023-04-15T01:13:29;8.65;;;6.30;;
12958;SDS011;6544;51.666;6.634;2023-04-15T01:15:57;8.82;;;6.40;;
12958;SDS011;6544;51.666;6.634;2023-04-15T01:18:24;9.85;;;6.55;;
12958;SDS011;6544;51.666;6.634;2023-04-15T01:20:52;9.73;;;6.38;;
12958;SDS011;6544;51.666;6.634;2023-04-15T01:23:19;7.85;;;5.85;;
12958;SDS011;6544;51.666;6.634;2023-04-15T01:25:48;7.85;;;6.35;;
12958;SDS011;6544;51.666;6.634;2023-04-15T01:28:16;7.25;;;6.30;;
12958;SDS011;6544;51.666;6.634;2023-04-15T01:30:43;9.13;;;6.85;;
12958;SDS011;6544;51.666;6.634;2023-04-15T01:33:10;7.30;;;6.25;;
12958;SDS011;6544;51.666;6.634;2023-04-15T01:35:37;9.70;;;6.53;;
12958;SDS011;6544;51.666;6.634;2023-04-15T01:38:04;9.35;;;6.35;;
12958;SDS011;6544;51.666;6.634;2023-04-15T01:40:32;9.07;;;6.93;;
12958;SDS011;6544;51.666;6.634;2023-04-15T01:43:01;8.20;;;6.70;;
12958;SDS011;6544;51.666;6.634;2023-04-15T01:45:28;8.32;;;6.28;;
12958;SDS011;6544;51.666;6.634;2023-04-15T01:47:55;8.77;;;6.93;;
12958;SDS011;6544;51.666;6.634;2023-04-15T01:50:22;7.75;;;6.28;;
12958;SDS011;6544;51.666;6.634;2023-04-15T01:52:50;8.07;;;6.45;;
12958;SDS011;6544;51.666;6.634;2023-04-15T01:55:17;8.70;;;6.75;;
12958;SDS011;6544;51.666;6.634;2023-04-15T01:57:44;7.72;;;5.85;;
12958;SDS011;6544;51.666;6.634;2023-04-15T02:00:13;7.95;;;6.40;;
12958;SDS011;6544;51.666;6.634;2023-04-15T02:02:40;9.27;;;6.53;;
12958;SDS011;6544;51.666;6.634;2023-04-15T02:05:07;6.80;;;5.65;;
12958;SDS011;6544;51.666;6.634;2023-04-15T02:07:35;8.88;;;6.85;;
12958;SDS011;6544;51.666;6.634;2023-04-15T02:10:02;9.35;;;6.65;;
12958;SDS011;6544;51.666;6.634;2023-04-15T02:12:29;9.20;;;7.05;;
12958;SDS011;6544;51.666;6.634;2023-04-15T02:14:56;9.15;;;7.07;;
12958;SDS011;6544;51.666;6.634;2023-04-15T02:17:24;9.55;;;6.80;;
12958;SDS011;6544;51.666;6.634;2023-04-15T02:19:51;8.40;;;6.60;;
12958;SDS011;6544;51.666;6.634;2023-04-15T02:22:18;8.82;;;6.60;;
12958;SDS011;6544;51.666;6.634;2023-04-15T02:24:45;9.73;;;6.72;;
12958;SDS011;6544;51.666;6.634;2023-04-15T02:27:14;9.40;;;6.78;;
12958;SDS011;6544;51.666;6.634;2023-04-15T02:29:42;7.13;;;6.43;;
12958;SDS011;6544;51.666;6.634;2023-04-15T02:32:10;9.02;;;6.75;;
12958;SDS011;6544;51.666;6.634;2023-04-15T02:34:38;8.02;;;6.10;;
12958;SDS011;6544;51.666;6.634;2023-04-15T02:37:07;9.93;;;6.43;;
12958;SDS011;6544;51.666;6.634;2023-04-15T02:39:34;6.82;;;6.13;;
12958;SDS011;6544;51.666;6.634;2023-04-15T02:42:01;9.07;;;6.50;;
12958;SDS011;6544;51.666;6.634;2023-04-15T02:44:29;9.23;;;6.38;;
12958;SDS011;6544;51.666;6.634;2023-04-15T02:46:56;7.22;;;6.53;;
12958;SDS011;6544;51.666;6.634;2023-04-15T02:49:23;8.02;;;6.28;;
12958;SDS011;6544;51.666;6.634;2023-04-15T02:51:55;7.53;;;6.35;;
12958;SDS011;6544;51.666;6.634;2023-04-15T02:54:24;9.52;;;6.60;;
12958;SDS011;6544;51.666;6.634;2023-04-15T02:56:53;8.20;;;6.25;;
12958;SDS011;6544;51.666;6.634;2023-04-15T02:59:20;9.25;;;6.80;;
12958;SDS011;6544;51.666;6.634;2023-04-15T03:01:47;7.32;;;6.38;;
12958;SDS011;6544;51.666;6.634;2023-04-15T03:04:14;9.52;;;6.93;;
12958;SDS011;6544;51.666;6.634;2023-04-15T03:06:41;10.00;;;6.80;;
12958;SDS011;6544;51.666;6.634;2023-04-15T03:09:09;8.38;;;6.45;;
12958;SDS011;6544;51.666;6.634;2023-04-15T03:11:37;9.07;;;6.82;;
12958;SDS011;6544;51.666;6.634;2023-04-15T03:14:06;9.43;;;6.72;;
12958;SDS011;6544;51.666;6.634;2023-04-15T03:16:33;7.28;;;6.30;;
12958;SDS011;6544;51.666;6.634;2023-04-15T03:19:00;9.35;;;6.85;;
12958;SDS011;6544;51.666;6.634;2023-04-15T03:21:26;9.90;;;6.68;;
12958;SDS011;6544;51.666;6.634;2023-04-15T03:23:53;9.85;;;6.97;;
12958;SDS011;6544;51.666;6.634;2023-04-15T03:26:26;11.00;;;7.50;;
12958;SDS011;6544;51.666;6.634;2023-04-15T03:28:53;7.93;;;6.82;;
12958;SDS011;6544;51.666;6.634;2023-04-15T03:31:20;8.88;;;6.97;;
12958;SDS011;6544;51.666;6.634;2023-04-15T03:33:47;9.48;;;7.53;;
12958;SDS011;6544;51.666;6.634;2023-04-15T03:36:14;10.10;;;7.88;;
12958;SDS011;6544;51.666;6.634;2023-04-15T03:38:41;10.43;;;7.63;;
12958;SDS011;6544;51.666;6.634;2023-04-15T03:41:08;8.38;;;6.97;;
12958;SDS011;6544;51.666;6.634;2023-04-15T03:43:36;12.20;;;7.75;;
12958;SDS011;6544;51.666;6.634;2023-04-15T03:46:03;9.43;;;7.07;;
12958;SDS011;6544;51.666;6.634;2023-04-15T03:48:30;8.40;;;7.50;;
12958;SDS011;6544;51.666;6.634;2023-04-15T03:50:57;9.50;;;7.22;;
12958;SDS011;6544;51.666;6.634;2023-04-15T03:53:24;8.57;;;7.13;;
12958;SDS011;6544;51.666;6.634;2023-04-15T03:55:51;10.95;;;7.55;;
12958;SDS011;6544;51.666;6.634;2023-04-15T03:58:18;10.02;;;7.60;;
12958;SDS011;6544;51.666;6.634;2023-04-15T04:00:46;9.97;;;7.60;;
12958;SDS011;6544;51.666;6.634;2023-04-15T04:03:13;9.07;;;7.45;;
12958;SDS011;6544;51.666;6.634;2023-04-15T04:05:40;8.77;;;7.63;;
12958;SDS011;6544;51.666;6.634;2023-04-15T04:08:08;8.15;;;7.35;;
12958;SDS011;6544;51.666;6.634;2023-04-15T04:10:37;8.73;;;7.25;;
12958;SDS011;6544;51.666;6.634;2023-04-15T04:13:04;9.13;;;7.50;;
12958;SDS011;6544;51.666;6.634;2023-04-15T04:15:31;9.90;;;7.88;;
12958;SDS011;6544;51.666;6.634;2023-04-15T04:18:00;8.93;;;6.70;;
12958;SDS011;6544;51.666;6.634;2023-04-15T04:20:27;8.55;;;7.65;;
12958;SDS011;6544;51.666;6.634;2023-04-15T04:22:56;10.52;;;7.60;;
12958;SDS011;6544;51.666;6.634;2023-04-15T04:25:22;9.70;;;8.13;;
12958;SDS011;6544;51.666;6.634;2023-04-15T04:27:49;13.27;;;7.85;;
12958;SDS011;6544;51.666;6.634;2023-04-15T04:30:16;9.15;;;8.18;;
12958;SDS011;6544;51.666;6.634;2023-04-15T04:32:43;8.70;;;7.80;;
12958;SDS011;6544;51.666;6.634;2023-04-15T04:35:12;11.65;;;8.60;;
12958;SDS011;6544;51.666;6.634;2023-04-15T04:37:39;9.52;;;8.52;;
12958;SDS011;6544;51.666;6.634;2023-04-15T04:40:07;10.35;;;8.23;;
12958;SDS011;6544;51.666;6.634;2023-04-15T04:42:35;10.00;;;8.60;;
12958;SDS011;6544;51.666;6.634;2023-04-15T04:45:02;10.10;;;8.93;;
12958;SDS011;6544;51.666;6.634;2023-04-15T04:47:29;9.90;;;8.73;;
12958;SDS011;6544;51.666;6.634;2023-04-15T04:49:56;9.95;;;8.95;;
12958;SDS011;6544;51.666;6.634;2023-04-15T04:52:24;13.63;;;8.82;;
12958;SDS011;6544;51.666;6.634;2023-04-15T04:54:51;11.50;;;8.73;;
12958;SDS011;6544;51.666;6.634;2023-04-15T04:57:18;11.13;;;9.40;;
12958;SDS011;6544;51.666;6.634;2023-04-15T04:59:44;11.82;;;9.85;;
12958;SDS011;6544;51.666;6.634;2023-04-15T05:02:11;11.45;;;9.10;;
12958;SDS011;6544;51.666;6.634;2023-04-15T05:04:38;11.07;;;9.45;;
12958;SDS011;6544;51.666;6.634;2023-04-15T05:07:05;10.93;;;9.57;;
12958;SDS011;6544;51.666;6.634;2023-04-15T05:09:34;13.77;;;10.40;;
12958;SDS011;6544;51.666;6.634;2023-04-15T05:12:01;14.80;;;10.48;;
12958;SDS011;6544;51.666;6.634;2023-04-15T05:14:28;12.67;;;10.43;;
12958;SDS011;6544;51.666;6.634;2023-04-15T05:16:56;12.77;;;10.50;;
12958;SDS011;6544;51.666;6.634;2023-04-15T05:19:23;11.40;;;10.10;;
12958;SDS011;6544;51.666;6.634;2023-04-15T05:21:50;11.73;;;10.27;;
12958;SDS011;6544;51.666;6.634;2023-04-15T05:24:16;13.90;;;10.90;;
12958;SDS011;6544;51.666;6.634;2023-04-15T05:26:45;12.50;;;10.50;;
12958;SDS011;6544;51.666;6.634;2023-04-15T05:29:12;14.37;;;10.40;;
12958;SDS011;6544;51.666;6.634;2023-04-15T05:31:38;13.47;;;11.03;;
12958;SDS011;6544;51.666;6.634;2023-04-15T05:34:06;11.83;;;9.57;;
12958;SDS011;6544;51.666;6.634;2023-04-15T05:36:33;12.30;;;9.60;;
12958;SDS011;6544;51.666;6.634;2023-04-15T05:39:00;12.87;;;9.97;;
12958;SDS011;6544;51.666;6.634;2023-04-15T05:41:28;16.03;;;10.77;;
12958;SDS011;6544;51.666;6.634;2023-04-15T05:43:56;12.70;;;10.57;;
12958;SDS011;6544;51.666;6.634;2023-04-15T05:46:23;11.87;;;10.57;;
12958;SDS011;6544;51.666;6.634;2023-04-15T05:48:50;12.00;;;10.53;;
12958;SDS011;6544;51.666;6.634;2023-04-15T05:51:17;12.73;;;10.60;;
12958;SDS011;6544;51.666;6.634;2023-04-15T05:53:44;14.23;;;11.63;;
12958;SDS011;6544;51.666;6.634;2023-04-15T05:56:11;14.37;;;11.80;;
12958;SDS011;6544;51.666;6.634;2023-04-15T05:58:37;13.83;;;11.53;;
12958;SDS011;6544;51.666;6.634;2023-04-15T06:01:06;13.73;;;11.63;;
12958;SDS011;6544;51.666;6.634;2023-04-15T06:03:34;14.93;;;12.10;;
12958;SDS011;6544;51.666;6.634;2023-04-15T06:06:07;14.80;;;11.50;;
12958;SDS011;6544;51.666;6.634;2023-04-15T06:08:37;14.77;;;11.93;;
12958;SDS011;6544;51.666;6.634;2023-04-15T06:11:04;14.50;;;12.53;;
12958;SDS011;6544;51.666;6.634;2023-04-15T06:13:31;13.43;;;12.00;;
12958;SDS011;6544;51.666;6.634;2023-04-15T06:15:58;14.77;;;11.97;;
12958;SDS011;6544;51.666;6.634;2023-04-15T06:18:27;19.97;;;12.63;;
12958;SDS011;6544;51.666;6.634;2023-04-15T06:20:54;16.10;;;12.48;;
12958;SDS011;6544;51.666;6.634;2023-04-15T06:23:21;13.90;;;12.40;;
12958;SDS011;6544;51.666;6.634;2023-04-15T06:25:59;13.98;;;11.88;;
12958;SDS011;6544;51.666;6.634;2023-04-15T06:28:26;17.37;;;12.80;;
12958;SDS011;6544;51.666;6.634;2023-04-15T06:30:53;16.83;;;13.37;;
12958;SDS011;6544;51.666;6.634;2023-04-15T06:33:20;13.53;;;12.13;;
12958;SDS011;6544;51.666;6.634;2023-04-15T06:35:48;14.80;;;12.40;;
12958;SDS011;6544;51.666;6.634;2023-04-15T06:38:15;15.77;;;12.77;;
12958;SDS011;6544;51.666;6.634;2023-04-15T06:40:42;18.77;;;12.00;;
12958;SDS011;6544;51.666;6.634;2023-04-15T06:43:09;14.23;;;12.13;;
12958;SDS011;6544;51.666;6.634;2023-04-15T06:45:35;13.97;;;12.07;;
12958;SDS011;6544;51.666;6.634;2023-04-15T06:48:02;14.17;;;12.60;;
12958;SDS011;6544;51.666;6.634;2023-04-15T06:50:30;13.50;;;12.10;;
12958;SDS011;6544;51.666;6.634;2023-04-15T06:52:59;15.67;;;12.30;;
12958;SDS011;6544;51.666;6.634;2023-04-15T06:55:26;15.27;;;11.97;;
12958;SDS011;6544;51.666;6.634;2023-04-15T06:57:53;17.48;;;12.80;;
12958;SDS011;6544;51.666;6.634;2023-04-15T07:00:20;13.70;;;11.80;;
12958;SDS011;6544;51.666;6.634;2023-04-15T07:02:49;16.73;;;12.43;;
12958;SDS011;6544;51.666;6.634;2023-04-15T07:05:20;17.60;;;12.17;;
12958;SDS011;6544;51.666;6.634;2023-04-15T07:07:47;16.33;;;11.43;;
12958;SDS011;6544;51.666;6.634;2023-04-15T07:10:15;15.03;;;12.40;;
12958;SDS011;6544;51.666;6.634;2023-04-15T07:12:42;13.68;;;11.88;;
12958;SDS011;6544;51.666;6.634;2023-04-15T07:15:10;12.57;;;11.23;;
12958;SDS011;6544;51.666;6.634;2023-04-15T07:17:37;13.48;;;11.48;;
12958;SDS011;6544;51.666;6.634;2023-04-15T07:20:04;13.40;;;10.75;;
12958;SDS011;6544;51.666;6.634;2023-04-15T07:22:32;11.82;;;10.13;;
12958;SDS011;6544;51.666;6.634;2023-04-15T07:24:59;15.13;;;10.10;;
12958;SDS011;6544;51.666;6.634;2023-04-15T07:27:27;12.48;;;9.95;;
12958;SDS011;6544;51.666;6.634;2023-04-15T07:29:55;11.77;;;9.57;;
12958;SDS011;6544;51.666;6.634;2023-04-15T07:32:22;11.57;;;9.95;;
12958;SDS011;6544;51.666;6.634;2023-04-15T07:34:48;11.38;;;9.50;;
12958;SDS011;6544;51.666;6.634;2023-04-15T07:37:15;10.68;;;9.57;;
12958;SDS011;6544;51.666;6.634;2023-04-15T07:39:43;12.20;;;9.73;;
12958;SDS011;6544;51.666;6.634;2023-04-15T07:42:09;12.18;;;9.48;;
12958;SDS011;6544;51.666;6.634;2023-04-15T07:44:38;9.68;;;8.55;;
12958;SDS011;6544;51.666;6.634;2023-04-15T07:47:05;13.13;;;10.02;;
12958;SDS011;6544;51.666;6.634;2023-04-15T07:49:32;9.70;;;8.70;;
12958;SDS011;6544;51.666;6.634;2023-04-15T07:51:58;10.45;;;8.93;;
12958;SDS011;6544;51.666;6.634;2023-04-15T07:54:26;10.25;;;8.95;;
12958;SDS011;6544;51.666;6.634;2023-04-15T07:56:52;11.30;;;8.93;;
12958;SDS011;6544;51.666;6.634;2023-04-15T07:59:20;11.15;;;8.13;;
12958;SDS011;6544;51.666;6.634;2023-04-15T08:01:48;7.95;;;7.05;;
12958;SDS011;6544;51.666;6.634;2023-04-15T08:04:15;7.35;;;6.53;;
12958;SDS011;6544;51.666;6.634;2023-04-15T08:06:42;8.90;;;6.97;;
12958;SDS011;6544;51.666;6.634;2023-04-15T08:09:09;8.43;;;6.68;;
12958;SDS011;6544;51.666;6.634;2023-04-15T08:11:36;8.93;;;7.53;;
12958;SDS011;6544;51.666;6.634;2023-04-15T08:14:03;9.38;;;8.00;;
12958;SDS011;6544;51.666;6.634;2023-04-15T08:16:31;8.10;;;6.55;;
12958;SDS011;6544;51.666;6.634;2023-04-15T08:18:59;8.25;;;6.25;;
12958;SDS011;6544;51.666;6.634;2023-04-15T08:21:26;8.82;;;5.93;;
12958;SDS011;6544;51.666;6.634;2023-04-15T08:23:55;7.55;;;5.90;;
12958;SDS011;6544;51.666;6.634;2023-04-15T08:26:22;7.90;;;5.88;;
12958;SDS011;6544;51.666;6.634;2023-04-15T08:28:49;7.30;;;6.28;;
12958;SDS011;6544;51.666;6.634;2023-04-15T08:31:16;6.53;;;5.68;;
12958;SDS011;6544;51.666;6.634;2023-04-15T08:33:44;6.90;;;4.93;;
12958;SDS011;6544;51.666;6.634;2023-04-15T08:36:12;7.53;;;5.10;;
12958;SDS011;6544;51.666;6.634;2023-04-15T08:38:39;5.75;;;5.07;;
12958;SDS011;6544;51.666;6.634;2023-04-15T08:41:08;5.85;;;4.70;;
12958;SDS011;6544;51.666;6.634;2023-04-15T08:43:42;4.60;;;4.20;;
12958;SDS011;6544;51.666;6.634;2023-04-15T08:46:14;7.15;;;5.22;;
12958;SDS011;6544;51.666;6.634;2023-04-15T08:48:42;6.30;;;4.70;;
12958;SDS011;6544;51.666;6.634;2023-04-15T08:51:12;5.85;;;4.90;;
12958;SDS011;6544;51.666;6.634;2023-04-15T08:53:40;7.78;;;5.30;;
12958;SDS011;6544;51.666;6.634;2023-04-15T08:56:08;6.07;;;5.22;;
12958;SDS011;6544;51.666;6.634;2023-04-15T08:58:36;7.22;;;5.55;;
12958;SDS011;6544;51.666;6.634;2023-04-15T09:01:04;5.95;;;5.25;;
12958;SDS011;6544;51.666;6.634;2023-04-15T09:03:31;6.80;;;5.50;;
12958;SDS011;6544;51.666;6.634;2023-04-15T09:05:58;6.15;;;5.53;;
12958;SDS011;6544;51.666;6.634;2023-04-15T09:08:27;6.22;;;5.63;;
12958;SDS011;6544;51.666;6.634;2023-04-15T09:10:53;6.78;;;5.90;;
12958;SDS011;6544;51.666;6.634;2023-04-15T09:13:20;5.70;;;5.18;;
12958;SDS011;6544;51.666;6.634;2023-04-15T09:15:48;6.72;;;5.30;;
12958;SDS011;6544;51.666;6.634;2023-04-15T09:18:26;8.70;;;6.00;;
12958;SDS011;6544;51.666;6.634;2023-04-15T09:20:54;7.03;;;5.80;;
12958;SDS011;6544;51.666;6.634;2023-04-15T09:23:22;6.25;;;5.65;;
12958;SDS011;6544;51.666;6.634;2023-04-15T09:25:50;9.00;;;5.57;;
12958;SDS011;6544;51.666;6.634;2023-04-15T09:28:22;6.43;;;5.40;;
12958;SDS011;6544;51.666;6.634;2023-04-15T09:30:51;7.13;;;5.35;;
12958;SDS011;6544;51.666;6.634;2023-04-15T09:33:21;6.15;;;5.28;;
12958;SDS011;6544;51.666;6.634;2023-04-15T09:35:55;6.28;;;5.28;;
12958;SDS011;6544;51.666;6.634;2023-04-15T09:38:23;6.32;;;5.32;;
12958;SDS011;6544;51.666;6.634;2023-04-15T09:40:51;6.32;;;5.40;;
12958;SDS011;6544;51.666;6.634;2023-04-15T09:43:18;5.95;;;5.30;;
12958;SDS011;6544;51.666;6.634;2023-04-15T09:45:46;6.68;;;5.97;;
12958;SDS011;6544;51.666;6.634;2023-04-15T09:48:15;7.55;;;6.00;;
12958;SDS011;6544;51.666;6.634;2023-04-15T09:50:45;6.43;;;5.60;;
12958;SDS011;6544;51.666;6.634;2023-04-15T09:53:16;6.30;;;5.60;;
12958;SDS011;6544;51.666;6.634;2023-04-15T09:55:48;6.38;;;5.68;;
12958;SDS011;6544;51.666;6.634;2023-04-15T09:58:21;6.20;;;5.20;;
12958;SDS011;6544;51.666;6.634;2023-04-15T10:00:49;6.20;;;5.30;;
12958;SDS011;6544;51.666;6.634;2023-04-15T10:03:18;5.78;;;5.20;;
12958;SDS011;6544;51.666;6.634;2023-04-15T10:05:47;5.53;;;4.93;;
12958;SDS011;6544;51.666;6.634;2023-04-15T10:08:16;6.57;;;5.20;;
12958;SDS011;6544;51.666;6.634;2023-04-15T10:10:44;5.53;;;4.95;;
12958;SDS011;6544;51.666;6.634;2023-04-15T10:13:12;6.05;;;5.20;;
12958;SDS011;6544;51.666;6.634;2023-04-15T10:15:43;6.97;;;5.50;;
12958;SDS011;6544;51.666;6.634;2023-04-15T10:18:12;5.93;;;5.25;;
12958;SDS011;6544;51.666;6.634;2023-04-15T10:20:42;6.50;;;5.15;;
12958;SDS011;6544;51.666;6.634;2023-04-15T10:23:10;5.68;;;5.10;;
12958;SDS011;6544;51.666;6.634;2023-04-15T10:25:38;5.55;;;5.00;;
12958;SDS011;6544;51.666;6.634;2023-04-15T10:28:05;5.93;;;4.30;;
12958;SDS011;6544;51.666;6.634;2023-04-15T10:30:33;4.90;;;4.38;;
12958;SDS011;6544;51.666;6.634;2023-04-15T10:33:03;6.25;;;5.15;;
12958;SDS011;6544;51.666;6.634;2023-04-15T10:35:31;5.68;;;5.10;;
12958;SDS011;6544;51.666;6.634;2023-04-15T10:37:59;6.32;;;5.53;;
12958;SDS011;6544;51.666;6.634;2023-04-15T10:40:26;5.80;;;5.20;;
12958;SDS011;6544;51.666;6.634;2023-04-15T10:42:56;6.03;;;5.13;;
12958;SDS011;6544;51.666;6.634;2023-04-15T10:45:24;8.25;;;5.55;;
12958;SDS011;6544;51.666;6.634;2023-04-15T10:47:55;6.35;;;5.68;;
12958;SDS011;6544;51.666;6.634;2023-04-15T10:50:26;6.25;;;4.90;;
12958;SDS011;6544;51.666;6.634;2023-04-15T10:52:54;5.13;;;4.50;;
12958;SDS011;6544;51.666;6.634;2023-04-15T10:55:22;7.55;;;4.70;;
12958;SDS011;6544;51.666;6.634;2023-04-15T10:57:51;5.00;;;4.50;;
12958;SDS011;6544;51.666;6.634;2023-04-15T11:00:23;5.40;;;4.53;;
12958;SDS011;6544;51.666;6.634;2023-04-15T11:02:52;5.05;;;4.53;;
12958;SDS011;6544;51.666;6.634;2023-04-15T11:05:21;4.95;;;3.95;;
12958;SDS011;6544;51.666;6.634;2023-04-15T11:07:51;5.38;;;4.30;;
12958;SDS011;6544;51.666;6.634;2023-04-15T11:13:20;4.63;;;3.97;;
12958;SDS011;6544;51.666;6.634;2023-04-15T11:15:58;4.55;;;4.07;;
12958;SDS011;6544;51.666;6.634;2023-04-15T11:18:27;5.22;;;4.63;;
12958;SDS011;6544;51.666;6.634;2023-04-15T11:20:56;5.38;;;4.05;;
12958;SDS011;6544;51.666;6.634;2023-04-15T11:23:28;4.47;;;4.07;;
12958;SDS011;6544;51.666;6.634;2023-04-15T11:25:59;4.97;;;4.38;;
12958;SDS011;6544;51.666;6.634;2023-04-15T11:28:29;4.93;;;4.50;;
12958;SDS011;6544;51.666;6.634;2023-04-15T11:30:57;5.57;;;4.40;;
12958;SDS011;6544;51.666;6.634;2023-04-15T11:33:30;6.82;;;4.20;;
12958;SDS011;6544;51.666;6.634;2023-04-15T11:35:57;5.38;;;4.30;;
12958;SDS011;6544;51.666;6.634;2023-04-15T11:38:24;5.07;;;4.05;;
12958;SDS011;6544;51.666;6.634;2023-04-15T11:40:53;4.40;;;4.00;;
12958;SDS011;6544;51.666;6.634;2023-04-15T11:43:21;4.90;;;3.95;;
12958;SDS011;6544;51.666;6.634;2023-04-15T11:45:50;5.38;;;4.28;;
12958;SDS011;6544;51.666;6.634;2023-04-15T11:48:18;4.63;;;4.10;;
12958;SDS011;6544;51.666;6.634;2023-04-15T11:50:51;4.32;;;3.90;;
12958;SDS011;6544;51.666;6.634;2023-04-15T11:53:19;5.25;;;3.97;;
12958;SDS011;6544;51.666;6.634;2023-04-15T11:55:47;7.65;;;4.20;;
12958;SDS011;6544;51.666;6.634;2023-04-15T11:58:17;4.43;;;3.85;;
12958;SDS011;6544;51.666;6.634;2023-04-15T12:00:47;5.82;;;3.75;;
12958;SDS011;6544;51.666;6.634;2023-04-15T12:03:17;6.00;;;3.78;;
12958;SDS011;6544;51.666;6.634;2023-04-15T12:06:10;6.28;;;4.20;;
12958;SDS011;6544;51.666;6.634;2023-04-15T12:08:56;5.97;;;3.90;;
12958;SDS011;6544;51.666;6.634;2023-04-15T12:11:37;6.50;;;3.58;;
12958;SDS011;6544;51.666;6.634;2023-04-15T12:14:08;6.07;;;3.92;;
12958;SDS011;6544;51.666;6.634;2023-04-15T12:16:42;4.55;;;3.35;;
12958;SDS011;6544;51.666;6.634;2023-04-15T12:19:11;4.25;;;3.35;;
12958;SDS011;6544;51.666;6.634;2023-04-15T12:21:40;7.25;;;3.40;;
12958;SDS011;6544;51.666;6.634;2023-04-15T12:24:09;4.63;;;3.50;;
12958;SDS011;6544;51.666;6.634;2023-04-15T12:26:41;5.47;;;3.63;;
12958;SDS011;6544;51.666;6.634;2023-04-15T12:29:11;5.40;;;3.55;;
12958;SDS011;6544;51.666;6.634;2023-04-15T12:31:48;4.55;;;3.70;;
12958;SDS011;6544;51.666;6.634;2023-04-15T12:34:16;4.60;;;3.50;;
12958;SDS011;6544;51.666;6.634;2023-04-15T12:36:44;5.35;;;3.55;;
12958;SDS011;6544;51.666;6.634;2023-04-15T12:39:11;4.45;;;3.08;;
12958;SDS011;6544;51.666;6.634;2023-04-15T12:41:38;4.10;;;3.00;;
12958;SDS011;6544;51.666;6.634;2023-04-15T12:44:06;6.35;;;2.95;;
12958;SDS011;6544;51.666;6.634;2023-04-15T12:46:34;4.60;;;2.92;;
12958;SDS011;6544;51.666;6.634;2023-04-15T12:49:01;4.40;;;3.10;;
12958;SDS011;6544;51.666;6.634;2023-04-15T12:51:28;3.42;;;2.83;;
12958;SDS011;6544;51.666;6.634;2023-04-15T12:53:56;5.20;;;3.58;;
12958;SDS011;6544;51.666;6.634;2023-04-15T12:56:23;4.15;;;3.20;;
12958;SDS011;6544;51.666;6.634;2023-04-15T12:58:50;5.78;;;3.60;;
12958;SDS011;6544;51.666;6.634;2023-04-15T13:01:17;7.88;;;3.40;;
12958;SDS011;6544;51.666;6.634;2023-04-15T13:03:46;5.63;;;3.45;;
12958;SDS011;6544;51.666;6.634;2023-04-15T13:06:14;5.82;;;3.53;;
12958;SDS011;6544;51.666;6.634;2023-04-15T13:08:41;5.07;;;3.42;;
12958;SDS011;6544;51.666;6.634;2023-04-15T13:11:08;5.05;;;3.15;;
12958;SDS011;6544;51.666;6.634;2023-04-15T13:13:35;4.72;;;3.10;;
12958;SDS011;6544;51.666;6.634;2023-04-15T13:16:02;4.10;;;3.20;;
12958;SDS011;6544;51.666;6.634;2023-04-15T13:18:30;3.08;;;2.70;;
12958;SDS011;6544;51.666;6.634;2023-04-15T13:21:01;4.28;;;2.92;;
12958;SDS011;6544;51.666;6.634;2023-04-15T13:23:28;4.28;;;2.78;;
12958;SDS011;6544;51.666;6.634;2023-04-15T13:25:55;5.53;;;3.08;;
12958;SDS011;6544;51.666;6.634;2023-04-15T13:28:22;4.35;;;2.65;;
12958;SDS011;6544;51.666;6.634;2023-04-15T13:30:48;4.38;;;2.88;;
12958;SDS011;6544;51.666;6.634;2023-04-15T13:33:16;3.13;;;2.60;;
12958;SDS011;6544;51.666;6.634;2023-04-15T13:35:43;4.47;;;2.50;;
12958;SDS011;6544;51.666;6.634;2023-04-15T13:38:11;3.20;;;2.30;;
12958;SDS011;6544;51.666;6.634;2023-04-15T13:40:38;3.10;;;2.70;;
12958;SDS011;6544;51.666;6.634;2023-04-15T13:43:05;3.90;;;2.50;;
12958;SDS011;6544;51.666;6.634;2023-04-15T13:45:32;4.85;;;3.05;;
12958;SDS011;6544;51.666;6.634;2023-04-15T13:47:59;3.42;;;2.60;;
12958;SDS011;6544;51.666;6.634;2023-04-15T13:50:26;4.65;;;2.83;;
12958;SDS011;6544;51.666;6.634;2023-04-15T13:52:53;6.45;;;2.70;;
12958;SDS011;6544;51.666;6.634;2023-04-15T13:55:21;4.82;;;2.70;;
12958;SDS011;6544;51.666;6.634;2023-04-15T13:57:48;3.72;;;2.47;;
12958;SDS011;6544;51.666;6.634;2023-04-15T14:00:16;2.58;;;2.38;;
12958;SDS011;6544;51.666;6.634;2023-04-15T14:02:43;2.85;;;2.50;;
12958;SDS011;6544;51.666;6.634;2023-04-15T14:05:10;4.03;;;2.63;;
12958;SDS011;6544;51.666;6.634;2023-04-15T14:07:37;3.10;;;2.17;;
12958;SDS011;6544;51.666;6.634;2023-04-15T14:10:05;3.33;;;2.60;;
12958;SDS011;6544;51.666;6.634;2023-04-15T14:12:34;4.47;;;2.70;;
12958;SDS011;6544;51.666;6.634;2023-04-15T14:15:01;2.95;;;2.65;;
12958;SDS011;6544;51.666;6.634;2023-04-15T14:17:28;2.10;;;1.90;;
12958;SDS011;6544;51.666;6.634;2023-04-15T14:19:55;3.15;;;2.50;;
12958;SDS011;6544;51.666;6.634;2023-04-15T14:22:22;2.47;;;2.28;;
12958;SDS011;6544;51.666;6.634;2023-04-15T14:24:48;3.67;;;2.40;;
12958;SDS011;6544;51.666;6.634;2023-04-15T14:27:17;2.85;;;2.45;;
12958;SDS011;6544;51.666;6.634;2023-04-15T14:29:45;3.25;;;2.60;;
12958;SDS011;6544;51.666;6.634;2023-04-15T14:32:12;4.32;;;2.45;;
12958;SDS011;6544;51.666;6.634;2023-04-15T14:34:39;4.30;;;2.97;;
12958;SDS011;6544;51.666;6.634;2023-04-15T14:37:06;3.78;;;2.72;;
12958;SDS011;6544;51.666;6.634;2023-04-15T14:39:33;4.63;;;2.75;;
12958;SDS011;6544;51.666;6.634;2023-04-15T14:42:00;3.55;;;2.78;;
12958;SDS011;6544;51.666;6.634;2023-04-15T14:44:27;4.90;;;2.67;;
12958;SDS011;6544;51.666;6.634;2023-04-15T14:46:55;3.20;;;2.85;;
12958;SDS011;6544;51.666;6.634;2023-04-15T14:49:22;3.67;;;2.60;;
12958;SDS011;6544;51.666;6.634;2023-04-15T14:51:50;3.50;;;2.53;;
12958;SDS011;6544;51.666;6.634;2023-04-15T14:54:17;3.42;;;2.50;;
12958;SDS011;6544;51.666;6.634;2023-04-15T14:56:43;3.47;;;2.63;;
12958;SDS011;6544;51.666;6.634;2023-04-15T14:59:10;4.82;;;2.70;;
12958;SDS011;6544;51.666;6.634;2023-04-15T15:01:37;4.90;;;2.63;;
12958;SDS011;6544;51.666;6.634;2023-04-15T15:04:05;4.57;;;2.63;;